KAIZ/AIZ METAR and TAF weather

Enter ICAO airport designator
Station Type Date Time Source
KAIZ METAR 2024/04/15 08:56 UTC NOAA

KAIZ 150856Z AUTO 00000KT 10SM CLR 16/14 A2988 RMK AO2 SLP111 T01610139 53001


Station Type Date Time Source
KAIZ Decoded METAR 2024/04/15 08:56 UTC NOAA

Kaiser Lake Ozark, Lee C Fine Memorial Airport, MO, United States (KAIZ) 38-06N 092-33W
Apr 15, 2024 - 04:56 AM EDT / 2024.04.15 0856 UTC
Wind: Calm:0
Visibility: 10 mile(s):0
Sky conditions: clear
Temperature: 61.0 F (16.1 C)
Dew Point: 57.0 F (13.9 C)
Relative Humidity: 86%
Pressure (altimeter): 29.88 in. Hg (1011 hPa)
Pressure tendency: 0.00 inches (0.1 hPa) higher than three hours ago
ob: KAIZ 150856Z AUTO 00000KT 10SM CLR 16/14 A2988 RMK AO2 SLP111 T01610139 53001
cycle: 9

Station Type Date Time Source
KAIZ TAF UTC NOAA

Error!

Example: see airport list